Time;durP1;ratioP1;P1;durP2;ratioP2;P2;SDS_P1;SDS_P2;PMS_P1;PMS_P2;Temp;Humidity;BMP_temperature;BMP_pressure;BME280_temperature;BME280_humidity;BME280_pressure;Samples;Min_cycle;Max_cycle;Signal;HPM_P1;HPM_P2
2022/08/20 00:01:26;;;;;;;10.73;3.67;;;;;;;;;;3368362;42;20087;-57
2022/08/20 00:03:57;;;;;;;14.00;3.65;;;;;;;;;;3368448;42;20092;-58
2022/08/20 00:06:28;;;;;;;12.02;3.50;;;;;;;;;;3370419;42;20095;-58
2022/08/20 00:08:59;;;;;;;9.00;3.35;;;;;;;;;;3368793;42;20167;-58
2022/08/20 00:11:32;;;;;;;8.85;3.47;;;;;;;;;;3372950;42;20151;-56
2022/08/20 00:14:04;;;;;;;10.70;3.60;;;;;;;;;;3368119;42;20610;-57
2022/08/20 00:16:35;;;;;;;8.90;3.40;;;;;;;;;;3368351;42;20475;-58
2022/08/20 00:19:07;;;;;;;8.93;3.72;;;;;;;;;;3354189;42;20110;-57
2022/08/20 00:21:38;;;;;;;9.88;3.35;;;;;;;;;;3365033;42;20111;-56
2022/08/20 00:24:09;;;;;;;11.40;3.25;;;;;;;;;;3372844;42;20146;-56
2022/08/20 00:26:41;;;;;;;8.87;3.73;;;;;;;;;;3373036;42;20761;-57
2022/08/20 00:29:12;;;;;;;8.60;3.25;;;;;;;;;;3365398;42;20604;-56
2022/08/20 00:31:43;;;;;;;12.88;3.38;;;;;;;;;;3366402;42;20088;-58
2022/08/20 00:34:14;;;;;;;10.07;3.85;;;;;;;;;;3365254;42;20588;-55
2022/08/20 00:36:45;;;;;;;11.88;4.05;;;;;;;;;;3360243;42;20562;-57
2022/08/20 00:39:17;;;;;;;10.60;3.70;;;;;;;;;;3357764;42;20634;-57
2022/08/20 00:41:48;;;;;;;10.10;3.40;;;;;;;;;;3363049;42;20127;-57
2022/08/20 00:44:21;;;;;;;9.65;3.70;;;;;;;;;;3360051;42;20138;-57
2022/08/20 00:46:52;;;;;;;8.80;3.20;;;;;;;;;;3364448;42;20096;-54
2022/08/20 00:49:29;;;;;;;8.63;3.50;;;;;;;;;;3371734;42;20629;-55
2022/08/20 00:52:03;;;;;;;10.80;3.90;;;;;;;;;;3354060;42;20092;-57
2022/08/20 00:54:44;;;;;;;8.43;3.22;;;;;;;;;;3368003;42;20096;-57
2022/08/20 00:57:43;;;;;;;9.85;3.65;;;;;;;;;;3354724;42;20691;-57
2022/08/20 01:00:17;;;;;;;7.60;3.20;;;;;;;;;;3357273;42;20143;-56
2022/08/20 01:02:49;;;;;;;7.72;2.88;;;;;;;;;;3365232;42;20101;-56
2022/08/20 01:05:22;;;;;;;7.17;2.70;;;;;;;;;;3372463;42;20113;-57
2022/08/20 01:07:53;;;;;;;9.30;3.65;;;;;;;;;;3366368;42;20133;-57
2022/08/20 01:10:31;;;;;;;11.88;3.15;;;;;;;;;;3353063;42;20542;-57
2022/08/20 01:13:07;;;;;;;9.20;3.30;;;;;;;;;;3356652;42;20115;-57
2022/08/20 01:15:40;;;;;;;8.85;3.30;;;;;;;;;;3353834;42;20146;-55
2022/08/20 01:18:14;;;;;;;9.90;3.53;;;;;;;;;;3343288;42;20498;-56
2022/08/20 01:20:51;;;;;;;17.73;3.60;;;;;;;;;;3350226;42;20096;-55
2022/08/20 01:24:05;;;;;;;7.25;3.08;;;;;;;;;;3351107;42;20143;-57
2022/08/20 01:26:40;;;;;;;7.68;3.20;;;;;;;;;;3334055;42;20140;-56
2022/08/20 01:29:13;;;;;;;8.43;3.40;;;;;;;;;;3359253;42;20137;-57
2022/08/20 01:31:45;;;;;;;8.73;2.77;;;;;;;;;;3365171;42;20723;-58
2022/08/20 01:34:20;;;;;;;9.43;3.40;;;;;;;;;;3364933;42;20585;-59
2022/08/20 01:36:52;;;;;;;7.22;2.97;;;;;;;;;;3364967;42;20083;-56
2022/08/20 01:39:33;;;;;;;8.95;3.17;;;;;;;;;;3365303;42;20087;-56
2022/08/20 01:42:06;;;;;;;9.98;3.20;;;;;;;;;;3372539;42;20135;-56
2022/08/20 01:44:38;;;;;;;9.67;3.20;;;;;;;;;;3358097;42;20170;-57
2022/08/20 01:47:11;;;;;;;12.13;3.20;;;;;;;;;;3365045;42;20611;-57
2022/08/20 01:49:45;;;;;;;8.10;2.80;;;;;;;;;;3351882;42;20151;-57
2022/08/20 01:52:26;;;;;;;7.13;3.30;;;;;;;;;;3365244;42;20091;-56
2022/08/20 01:54:57;;;;;;;7.82;3.05;;;;;;;;;;3372083;42;20151;-57
2022/08/20 01:57:28;;;;;;;8.73;3.20;;;;;;;;;;3364755;42;20583;-57
2022/08/20 02:00:00;;;;;;;11.85;2.90;;;;;;;;;;3357969;42;20104;-55
2022/08/20 02:02:31;;;;;;;9.55;3.72;;;;;;;;;;3364833;42;20100;-56
2022/08/20 02:05:03;;;;;;;8.00;3.28;;;;;;;;;;3364895;42;20131;-56
2022/08/20 02:07:34;;;;;;;8.45;3.10;;;;;;;;;;3370319;42;20161;-58
2022/08/20 02:10:07;;;;;;;7.43;2.93;;;;;;;;;;3363682;42;20109;-55
2022/08/20 02:12:38;;;;;;;9.38;3.10;;;;;;;;;;3370247;42;20091;-57
2022/08/20 02:15:11;;;;;;;9.43;3.30;;;;;;;;;;3364787;42;20151;-59
2022/08/20 02:17:42;;;;;;;7.07;2.90;;;;;;;;;;3357836;42;20596;-57
2022/08/20 02:20:19;;;;;;;9.52;3.30;;;;;;;;;;3370727;42;20088;-59
2022/08/20 02:22:57;;;;;;;9.03;2.93;;;;;;;;;;3365015;42;20178;-58
2022/08/20 02:25:30;;;;;;;8.20;3.55;;;;;;;;;;3363047;42;20104;-58
2022/08/20 02:28:04;;;;;;;7.55;3.08;;;;;;;;;;3370256;42;20168;-56
2022/08/20 02:30:38;;;;;;;9.18;3.20;;;;;;;;;;3361467;42;20100;-53
2022/08/20 02:33:12;;;;;;;6.75;2.90;;;;;;;;;;3370198;42;20088;-56
2022/08/20 02:35:45;;;;;;;6.80;3.07;;;;;;;;;;3361465;42;20170;-57
2022/08/20 02:38:16;;;;;;;8.20;3.05;;;;;;;;;;3357659;42;20096;-58
2022/08/20 02:40:48;;;;;;;13.32;3.38;;;;;;;;;;3365128;42;20558;-58
2022/08/20 02:43:20;;;;;;;7.55;3.17;;;;;;;;;;3365054;42;20215;-53
2022/08/20 02:45:51;;;;;;;8.05;3.20;;;;;;;;;;3364643;42;20158;-58
2022/08/20 02:48:22;;;;;;;7.33;3.10;;;;;;;;;;3364702;42;20092;-58
2022/08/20 02:50:55;;;;;;;7.15;2.97;;;;;;;;;;3364535;42;20104;-58
2022/08/20 02:53:28;;;;;;;7.30;3.20;;;;;;;;;;3364693;42;20087;-57
2022/08/20 02:55:59;;;;;;;7.20;3.20;;;;;;;;;;3371235;42;20088;-55
2022/08/20 02:58:30;;;;;;;7.75;2.92;;;;;;;;;;3364572;42;20592;-58
2022/08/20 03:01:03;;;;;;;6.83;2.83;;;;;;;;;;3366569;42;20562;-58
2022/08/20 03:03:34;;;;;;;8.68;3.13;;;;;;;;;;3366495;42;20222;-56
2022/08/20 03:06:06;;;;;;;9.25;3.05;;;;;;;;;;3371755;42;20522;-55
2022/08/20 03:08:37;;;;;;;8.85;3.42;;;;;;;;;;3364672;42;20571;-58
2022/08/20 03:11:08;;;;;;;9.18;3.20;;;;;;;;;;3366603;42;20153;-57
2022/08/20 03:13:40;;;;;;;10.20;3.03;;;;;;;;;;3366316;42;20100;-59
2022/08/20 03:16:11;;;;;;;8.52;3.05;;;;;;;;;;3363952;42;20689;-58
2022/08/20 03:18:44;;;;;;;10.40;3.28;;;;;;;;;;3362567;42;20095;-58
2022/08/20 03:21:15;;;;;;;8.75;3.00;;;;;;;;;;3354128;42;20092;-58
2022/08/20 03:23:46;;;;;;;7.00;3.15;;;;;;;;;;3358596;42;20151;-56
2022/08/20 03:26:17;;;;;;;8.53;3.10;;;;;;;;;;3373197;42;20111;-58
2022/08/20 03:28:48;;;;;;;7.53;3.10;;;;;;;;;;3361459;42;20107;-58
2022/08/20 03:31:20;;;;;;;10.07;3.17;;;;;;;;;;3367886;42;20092;-64
2022/08/20 03:33:51;;;;;;;8.00;3.05;;;;;;;;;;3368903;42;20096;-58
2022/08/20 03:36:23;;;;;;;9.57;2.90;;;;;;;;;;3367845;42;20139;-59
2022/08/20 03:38:55;;;;;;;8.43;3.10;;;;;;;;;;3366155;42;20111;-58
2022/08/20 03:41:27;;;;;;;9.43;3.47;;;;;;;;;;3359177;42;20581;-57
2022/08/20 03:43:58;;;;;;;7.40;2.83;;;;;;;;;;3365984;42;20095;-56
2022/08/20 03:46:30;;;;;;;8.95;3.15;;;;;;;;;;3366113;42;20108;-53
2022/08/20 03:49:01;;;;;;;8.73;2.90;;;;;;;;;;3372252;42;20110;-58
2022/08/20 03:51:32;;;;;;;8.73;3.10;;;;;;;;;;3366080;42;20094;-57
2022/08/20 03:54:03;;;;;;;7.78;3.20;;;;;;;;;;3366545;42;20095;-59
2022/08/20 03:56:34;;;;;;;9.45;3.10;;;;;;;;;;3366912;42;20087;-57
2022/08/20 03:59:05;;;;;;;8.07;3.08;;;;;;;;;;3367279;42;20190;-58
2022/08/20 04:01:36;;;;;;;7.15;2.90;;;;;;;;;;3371567;42;20088;-55
2022/08/20 04:04:08;;;;;;;9.47;3.27;;;;;;;;;;3373476;42;20513;-58
2022/08/20 04:06:40;;;;;;;10.52;3.63;;;;;;;;;;3364999;42;20095;-56
2022/08/20 04:09:11;;;;;;;8.60;3.20;;;;;;;;;;3364509;42;20104;-58
2022/08/20 04:11:42;;;;;;;7.88;2.90;;;;;;;;;;3356139;42;20088;-55
2022/08/20 04:14:13;;;;;;;9.88;3.00;;;;;;;;;;3351979;42;20163;-58
2022/08/20 04:16:45;;;;;;;7.80;2.67;;;;;;;;;;3368012;42;20104;-57
2022/08/20 04:19:16;;;;;;;8.15;2.85;;;;;;;;;;3366002;42;20700;-57
2022/08/20 04:21:47;;;;;;;10.60;2.70;;;;;;;;;;3372848;42;20566;-58
2022/08/20 04:24:19;;;;;;;9.10;2.75;;;;;;;;;;3366165;42;20094;-57
2022/08/20 04:26:51;;;;;;;6.82;2.53;;;;;;;;;;3372855;42;20142;-56
2022/08/20 04:29:24;;;;;;;10.97;3.10;;;;;;;;;;3365817;42;20203;-59
2022/08/20 04:31:55;;;;;;;9.25;2.90;;;;;;;;;;3370906;42;20198;-58
2022/08/20 04:34:28;;;;;;;6.88;2.55;;;;;;;;;;3372758;42;20104;-59
2022/08/20 04:36:59;;;;;;;7.20;2.58;;;;;;;;;;3370986;42;20174;-58
2022/08/20 04:39:30;;;;;;;7.28;2.80;;;;;;;;;;3370865;42;20099;-56
2022/08/20 04:42:01;;;;;;;7.97;2.70;;;;;;;;;;3363485;42;20095;-59
2022/08/20 04:44:33;;;;;;;7.47;2.50;;;;;;;;;;3371166;42;20210;-57
2022/08/20 04:47:06;;;;;;;7.05;3.20;;;;;;;;;;3370793;42;20096;-58
2022/08/20 04:49:37;;;;;;;7.03;3.00;;;;;;;;;;3371698;42;20107;-58
2022/08/20 04:52:10;;;;;;;10.95;2.85;;;;;;;;;;3362788;42;20159;-57
2022/08/20 04:54:42;;;;;;;8.70;2.60;;;;;;;;;;3360172;42;20099;-59
2022/08/20 04:57:14;;;;;;;6.97;2.80;;;;;;;;;;3357908;42;20229;-59
2022/08/20 04:59:45;;;;;;;10.10;3.25;;;;;;;;;;3360808;42;20092;-59
2022/08/20 05:02:17;;;;;;;11.02;2.58;;;;;;;;;;3365027;42;20096;-58
2022/08/20 05:04:48;;;;;;;8.23;2.72;;;;;;;;;;3365227;42;20113;-58
2022/08/20 05:07:20;;;;;;;9.20;2.73;;;;;;;;;;3365931;42;20092;-60
2022/08/20 05:09:51;;;;;;;8.85;2.70;;;;;;;;;;3367683;42;20092;-58
2022/08/20 05:12:22;;;;;;;12.32;2.63;;;;;;;;;;3359634;42;20088;-57
2022/08/20 05:14:57;;;;;;;7.78;2.65;;;;;;;;;;3370513;42;20107;-57
2022/08/20 05:17:28;;;;;;;7.28;2.30;;;;;;;;;;3364057;42;20092;-58
2022/08/20 05:19:59;;;;;;;8.17;2.50;;;;;;;;;;3361214;42;20084;-56
2022/08/20 05:22:30;;;;;;;6.72;2.30;;;;;;;;;;3360431;42;20616;-57
2022/08/20 05:25:02;;;;;;;9.63;2.42;;;;;;;;;;3360059;42;20099;-57
2022/08/20 05:27:33;;;;;;;8.38;2.80;;;;;;;;;;3359294;42;20106;-56
2022/08/20 05:30:09;;;;;;;8.35;2.75;;;;;;;;;;3367569;42;20100;-58
2022/08/20 05:32:40;;;;;;;7.50;2.40;;;;;;;;;;3353251;42;20087;-58
2022/08/20 05:35:11;;;;;;;9.55;2.53;;;;;;;;;;3363552;42;20644;-58
2022/08/20 05:38:01;;;;;;;7.95;2.30;;;;;;;;;;3370727;42;20823;-58
2022/08/20 05:40:33;;;;;;;6.97;2.60;;;;;;;;;;3359576;42;20087;-58
2022/08/20 05:43:04;;;;;;;9.55;3.08;;;;;;;;;;3359106;42;20517;-58
2022/08/20 05:45:38;;;;;;;9.67;2.60;;;;;;;;;;3361729;42;20114;-57
2022/08/20 05:48:12;;;;;;;7.45;2.47;;;;;;;;;;3357938;42;20088;-57
2022/08/20 05:50:44;;;;;;;6.85;2.50;;;;;;;;;;3364250;42;20181;-57
2022/08/20 05:53:16;;;;;;;7.28;2.35;;;;;;;;;;3366099;42;20165;-58
2022/08/20 05:55:48;;;;;;;6.80;2.70;;;;;;;;;;3356906;42;20730;-55
2022/08/20 05:58:25;;;;;;;10.03;2.47;;;;;;;;;;3358619;42;20137;-57
2022/08/20 06:00:56;;;;;;;9.18;2.42;;;;;;;;;;3360635;42;20872;-57
2022/08/20 06:06:17;;;;;;;6.68;2.20;;;;;;;;;;3358055;42;20155;-59
2022/08/20 06:08:48;;;;;;;8.98;2.50;;;;;;;;;;3357303;42;20143;-57
2022/08/20 06:11:19;;;;;;;6.00;2.40;;;;;;;;;;3364293;42;20168;-57
2022/08/20 06:13:50;;;;;;;6.72;2.70;;;;;;;;;;3371627;42;20098;-59
2022/08/20 06:16:21;;;;;;;6.45;2.50;;;;;;;;;;3366477;42;20151;-60
2022/08/20 06:18:53;;;;;;;6.75;2.60;;;;;;;;;;3358686;42;20103;-58
2022/08/20 06:21:25;;;;;;;6.18;2.30;;;;;;;;;;3360814;42;20162;-57
2022/08/20 06:23:56;;;;;;;8.10;2.43;;;;;;;;;;3358376;42;20136;-57
2022/08/20 06:26:28;;;;;;;6.72;2.17;;;;;;;;;;3364395;42;20099;-58
2022/08/20 06:29:00;;;;;;;5.93;2.20;;;;;;;;;;3356936;42;20095;-59
2022/08/20 06:31:33;;;;;;;6.65;2.25;;;;;;;;;;3358445;42;20088;-59
2022/08/20 06:34:05;;;;;;;6.65;2.33;;;;;;;;;;3352541;42;20657;-59
2022/08/20 06:36:36;;;;;;;7.70;2.30;;;;;;;;;;3357680;42;20096;-58
2022/08/20 06:39:07;;;;;;;8.65;2.72;;;;;;;;;;3360149;42;20103;-58
2022/08/20 06:41:38;;;;;;;6.80;2.45;;;;;;;;;;3363931;42;20118;-56
2022/08/20 06:44:10;;;;;;;6.15;2.63;;;;;;;;;;3369544;42;20182;-56
2022/08/20 06:46:42;;;;;;;7.55;2.90;;;;;;;;;;3363939;42;20100;-56
2022/08/20 06:49:13;;;;;;;6.70;2.30;;;;;;;;;;3363574;42;20110;-55
2022/08/20 06:51:44;;;;;;;6.53;2.38;;;;;;;;;;3363941;42;20106;-58
2022/08/20 06:54:16;;;;;;;6.15;2.25;;;;;;;;;;3371037;42;20087;-58
2022/08/20 06:56:47;;;;;;;6.45;2.42;;;;;;;;;;3364028;42;20099;-56
2022/08/20 06:59:18;;;;;;;7.88;2.10;;;;;;;;;;3368510;42;20848;-59
2022/08/20 07:01:49;;;;;;;5.37;2.10;;;;;;;;;;3366246;42;20154;-62
2022/08/20 07:04:22;;;;;;;6.20;2.15;;;;;;;;;;3359053;42;20147;-57
2022/08/20 07:06:54;;;;;;;8.05;2.22;;;;;;;;;;3359543;42;20100;-60
2022/08/20 07:09:25;;;;;;;6.30;2.08;;;;;;;;;;3357559;42;20153;-58
2022/08/20 07:11:56;;;;;;;8.50;2.30;;;;;;;;;;3365642;42;20143;-56
2022/08/20 07:14:28;;;;;;;8.70;2.10;;;;;;;;;;3366872;42;20629;-58
2022/08/20 07:17:02;;;;;;;6.70;2.00;;;;;;;;;;3360099;42;20100;-58
2022/08/20 07:19:33;;;;;;;8.63;2.40;;;;;;;;;;3361274;42;20165;-57
2022/08/20 07:22:04;;;;;;;7.10;2.03;;;;;;;;;;3361625;42;20118;-56
2022/08/20 07:24:37;;;;;;;8.98;2.22;;;;;;;;;;3355165;42;20092;-57
2022/08/20 07:27:08;;;;;;;7.20;2.30;;;;;;;;;;3367503;42;20084;-56
2022/08/20 07:32:35;;;;;;;7.63;2.30;;;;;;;;;;3359824;42;20139;-56
2022/08/20 07:35:10;;;;;;;6.93;2.58;;;;;;;;;;3362564;42;20088;-55
2022/08/20 07:37:43;;;;;;;5.82;2.38;;;;;;;;;;3355418;42;20895;-59
2022/08/20 07:40:28;;;;;;;9.83;3.47;;;;;;;;;;3358830;42;20165;-54
2022/08/20 07:43:01;;;;;;;7.88;2.53;;;;;;;;;;3364813;42;20544;-58
2022/08/20 07:45:33;;;;;;;7.07;2.50;;;;;;;;;;3363914;42;20179;-53
2022/08/20 07:48:08;;;;;;;18.27;2.50;;;;;;;;;;3365264;42;20103;-57
2022/08/20 07:50:40;;;;;;;5.30;2.08;;;;;;;;;;3370295;42;20110;-57
2022/08/20 07:53:11;;;;;;;8.10;2.40;;;;;;;;;;3365253;42;20159;-55
2022/08/20 07:55:43;;;;;;;7.15;2.40;;;;;;;;;;3365702;42;20458;-55
2022/08/20 07:58:16;;;;;;;7.18;2.20;;;;;;;;;;3348903;42;20618;-57
2022/08/20 08:00:47;;;;;;;6.07;2.60;;;;;;;;;;3359515;42;20095;-57
2022/08/20 08:03:18;;;;;;;6.55;2.40;;;;;;;;;;3364777;42;20549;-58
2022/08/20 08:05:52;;;;;;;10.00;2.77;;;;;;;;;;3360209;42;20087;-56
2022/08/20 08:08:25;;;;;;;5.90;2.50;;;;;;;;;;3349926;42;20507;-59
2022/08/20 08:10:58;;;;;;;7.43;2.45;;;;;;;;;;3362071;42;20103;-55
2022/08/20 08:13:31;;;;;;;7.78;2.42;;;;;;;;;;3362384;42;20103;-57
2022/08/20 08:16:04;;;;;;;6.97;2.42;;;;;;;;;;3371547;42;20623;-57
2022/08/20 08:18:47;;;;;;;7.20;2.50;;;;;;;;;;3356652;42;20144;-53
2022/08/20 08:21:21;;;;;;;6.45;2.67;;;;;;;;;;3367915;42;20115;-57
2022/08/20 08:23:52;;;;;;;7.68;2.40;;;;;;;;;;3361939;42;20151;-58
2022/08/20 08:26:24;;;;;;;7.10;2.50;;;;;;;;;;3360908;42;20664;-58
2022/08/20 08:28:56;;;;;;;6.55;2.40;;;;;;;;;;3367980;42;20346;-60
2022/08/20 08:31:28;;;;;;;6.87;3.17;;;;;;;;;;3369684;42;20088;-56
2022/08/20 08:33:59;;;;;;;7.82;2.53;;;;;;;;;;3349344;42;20510;-55
2022/08/20 08:36:30;;;;;;;7.78;2.60;;;;;;;;;;3363766;42;20151;-59
2022/08/20 08:39:01;;;;;;;7.50;2.50;;;;;;;;;;3361732;42;20550;-57
2022/08/20 08:41:48;;;;;;;7.50;2.75;;;;;;;;;;3367682;42;20096;-59
2022/08/20 08:44:33;;;;;;;6.37;2.67;;;;;;;;;;3354385;42;20117;-58
2022/08/20 08:47:28;;;;;;;7.60;2.88;;;;;;;;;;3366387;42;20213;-55
2022/08/20 08:49:59;;;;;;;6.43;2.78;;;;;;;;;;3360348;42;20092;-57
2022/08/20 08:52:31;;;;;;;8.05;2.85;;;;;;;;;;3346796;42;20088;-56
2022/08/20 08:55:04;;;;;;;7.38;2.70;;;;;;;;;;3349276;42;20096;-56
2022/08/20 08:57:36;;;;;;;6.67;2.43;;;;;;;;;;3354418;42;20539;-56
2022/08/20 09:00:10;;;;;;;6.28;2.58;;;;;;;;;;3368572;42;20155;-57
2022/08/20 09:03:02;;;;;;;8.07;2.70;;;;;;;;;;3342938;42;20513;-58
2022/08/20 09:05:55;;;;;;;9.63;2.60;;;;;;;;;;3361321;42;20099;-54
2022/08/20 09:08:30;;;;;;;7.22;2.53;;;;;;;;;;3356274;42;20114;-56
2022/08/20 09:11:03;;;;;;;7.83;2.73;;;;;;;;;;3361131;42;20122;-55
2022/08/20 09:13:35;;;;;;;8.40;2.92;;;;;;;;;;3352013;42;20163;-59
2022/08/20 09:16:06;;;;;;;6.90;2.65;;;;;;;;;;3356348;42;20100;-56
2022/08/20 09:18:37;;;;;;;7.68;2.47;;;;;;;;;;3355902;42;20566;-56
2022/08/20 09:21:09;;;;;;;8.77;2.25;;;;;;;;;;3373795;42;20110;-58
2022/08/20 09:23:40;;;;;;;8.80;2.30;;;;;;;;;;3365890;42;20155;-57
2022/08/20 09:26:12;;;;;;;6.80;2.50;;;;;;;;;;3371041;42;20139;-57
2022/08/20 09:28:43;;;;;;;6.30;2.30;;;;;;;;;;3371921;42;20205;-53
2022/08/20 09:31:14;;;;;;;6.18;2.53;;;;;;;;;;3364829;42;20096;-58
2022/08/20 09:33:46;;;;;;;7.20;2.75;;;;;;;;;;3369963;42;20104;-59
2022/08/20 09:36:17;;;;;;;6.57;2.43;;;;;;;;;;3372023;42;20111;-58
2022/08/20 09:38:48;;;;;;;8.98;2.40;;;;;;;;;;3371988;42;20095;-58
2022/08/20 09:41:20;;;;;;;7.93;2.60;;;;;;;;;;3364842;42;20083;-56
2022/08/20 09:43:51;;;;;;;6.60;2.60;;;;;;;;;;3364543;42;20130;-59
2022/08/20 09:46:22;;;;;;;5.90;2.00;;;;;;;;;;3364792;42;20098;-55
2022/08/20 09:48:54;;;;;;;5.93;2.17;;;;;;;;;;3370571;42;20174;-59
2022/08/20 09:51:25;;;;;;;6.22;2.42;;;;;;;;;;3360713;42;20084;-57
2022/08/20 09:53:56;;;;;;;7.95;2.45;;;;;;;;;;3349408;42;20107;-57
2022/08/20 09:56:28;;;;;;;7.72;2.60;;;;;;;;;;3361145;42;20185;-56
2022/08/20 09:58:59;;;;;;;6.60;2.38;;;;;;;;;;3353463;42;20091;-58
2022/08/20 10:01:32;;;;;;;7.77;2.30;;;;;;;;;;3364415;42;20094;-56
2022/08/20 10:04:03;;;;;;;7.10;2.58;;;;;;;;;;3353857;42;20692;-57
2022/08/20 10:06:38;;;;;;;7.05;2.17;;;;;;;;;;3363702;42;20562;-57
2022/08/20 10:09:09;;;;;;;8.93;2.90;;;;;;;;;;3351544;42;20094;-58
2022/08/20 10:11:40;;;;;;;6.90;2.70;;;;;;;;;;3363915;42;20131;-57
2022/08/20 10:14:12;;;;;;;9.00;2.80;;;;;;;;;;3355800;42;20106;-56
2022/08/20 10:16:43;;;;;;;6.28;2.50;;;;;;;;;;3356504;42;20108;-56
2022/08/20 10:19:14;;;;;;;6.70;2.80;;;;;;;;;;3368867;42;20096;-59
2022/08/20 10:21:45;;;;;;;7.18;2.60;;;;;;;;;;3364335;42;20502;-56
2022/08/20 10:24:17;;;;;;;6.72;2.30;;;;;;;;;;3369803;42;20107;-57
2022/08/20 10:26:48;;;;;;;7.57;2.50;;;;;;;;;;3364292;42;20084;-57
2022/08/20 10:29:19;;;;;;;11.23;3.00;;;;;;;;;;3372174;42;20619;-59
2022/08/20 10:31:51;;;;;;;7.50;2.80;;;;;;;;;;3369572;42;20096;-57
2022/08/20 10:34:23;;;;;;;6.38;2.47;;;;;;;;;;3369479;42;20107;-55
2022/08/20 10:36:54;;;;;;;8.52;2.70;;;;;;;;;;3362510;42;20143;-59
2022/08/20 10:39:26;;;;;;;7.40;2.80;;;;;;;;;;3369897;42;20159;-57
2022/08/20 10:41:57;;;;;;;11.15;2.95;;;;;;;;;;3355859;42;20096;-58
2022/08/20 10:44:28;;;;;;;7.65;3.03;;;;;;;;;;3360839;42;20122;-58
2022/08/20 10:47:21;;;;;;;7.22;3.00;;;;;;;;;;3366804;42;20219;-59
2022/08/20 10:49:54;;;;;;;7.05;2.80;;;;;;;;;;3359704;42;20160;-54
2022/08/20 10:52:26;;;;;;;11.47;3.10;;;;;;;;;;3357225;42;20098;-57
2022/08/20 10:54:57;;;;;;;6.72;2.63;;;;;;;;;;3359849;42;20611;-63
2022/08/20 10:57:29;;;;;;;6.60;2.90;;;;;;;;;;3350852;42;20099;-56
2022/08/20 11:00:00;;;;;;;7.28;2.60;;;;;;;;;;3369454;42;20145;-56
2022/08/20 11:02:31;;;;;;;8.77;2.90;;;;;;;;;;3358188;42;20597;-58
2022/08/20 11:05:04;;;;;;;11.03;2.70;;;;;;;;;;3370628;42;20596;-60
2022/08/20 11:07:37;;;;;;;7.90;3.10;;;;;;;;;;3360207;42;20138;-59
2022/08/20 11:10:09;;;;;;;6.68;2.28;;;;;;;;;;3367175;42;20471;-56
2022/08/20 11:12:40;;;;;;;7.50;2.63;;;;;;;;;;3356584;42;20088;-57
2022/08/20 11:15:11;;;;;;;6.25;2.40;;;;;;;;;;3358606;42;20084;-56
2022/08/20 11:17:43;;;;;;;8.20;2.73;;;;;;;;;;3359886;42;20513;-59
2022/08/20 11:20:16;;;;;;;7.40;2.10;;;;;;;;;;3358967;42;20178;-55
2022/08/20 11:22:47;;;;;;;5.90;2.13;;;;;;;;;;3363603;42;20092;-54
2022/08/20 11:25:18;;;;;;;6.85;2.25;;;;;;;;;;3368424;42;20135;-56
2022/08/20 11:27:50;;;;;;;6.97;2.20;;;;;;;;;;3359119;42;20175;-55
2022/08/20 11:30:25;;;;;;;7.67;2.33;;;;;;;;;;3366498;42;20103;-56
2022/08/20 11:32:57;;;;;;;6.40;2.50;;;;;;;;;;3366205;42;20147;-57
2022/08/20 11:35:29;;;;;;;7.20;2.40;;;;;;;;;;3346520;42;20124;-56
2022/08/20 11:38:01;;;;;;;6.45;2.40;;;;;;;;;;3367948;42;20257;-58
2022/08/20 11:40:32;;;;;;;6.47;2.50;;;;;;;;;;3360546;42;20543;-59
2022/08/20 11:43:03;;;;;;;9.47;2.77;;;;;;;;;;3360539;42;20584;-54
2022/08/20 11:45:34;;;;;;;7.75;2.58;;;;;;;;;;3368525;42;20171;-58
2022/08/20 11:48:05;;;;;;;8.07;2.33;;;;;;;;;;3370219;42;20105;-60
2022/08/20 11:50:37;;;;;;;6.00;2.30;;;;;;;;;;3356624;42;20167;-56
2022/08/20 11:53:08;;;;;;;9.13;2.50;;;;;;;;;;3361545;42;20135;-58
2022/08/20 11:55:39;;;;;;;8.43;2.53;;;;;;;;;;3360882;42;20110;-57
2022/08/20 11:58:10;;;;;;;8.80;2.60;;;;;;;;;;3365748;42;20192;-58
2022/08/20 12:00:41;;;;;;;7.43;2.50;;;;;;;;;;3367763;42;20096;-57
2022/08/20 12:03:13;;;;;;;8.10;2.55;;;;;;;;;;3365573;42;20136;-60
2022/08/20 12:05:44;;;;;;;7.78;2.72;;;;;;;;;;3365255;42;20110;-58
2022/08/20 12:08:15;;;;;;;9.17;2.73;;;;;;;;;;3365125;42;20170;-56
2022/08/20 12:10:47;;;;;;;6.80;2.60;;;;;;;;;;3365174;42;20174;-59
2022/08/20 12:13:18;;;;;;;8.60;3.28;;;;;;;;;;3371990;42;20598;-57
2022/08/20 12:15:49;;;;;;;7.10;2.63;;;;;;;;;;3372309;42;20100;-57
2022/08/20 12:18:20;;;;;;;6.20;2.60;;;;;;;;;;3367973;42;20185;-62
2022/08/20 12:20:52;;;;;;;8.53;2.63;;;;;;;;;;3365336;42;20131;-57
2022/08/20 12:23:23;;;;;;;7.63;2.55;;;;;;;;;;3365354;42;20147;-57
2022/08/20 12:25:54;;;;;;;7.18;2.92;;;;;;;;;;3365292;42;20092;-54
2022/08/20 12:28:25;;;;;;;10.13;2.60;;;;;;;;;;3365781;42;20169;-56
2022/08/20 12:30:56;;;;;;;7.05;2.75;;;;;;;;;;3365309;42;20593;-56
2022/08/20 12:33:28;;;;;;;8.00;3.37;;;;;;;;;;3359622;42;20091;-57
2022/08/20 12:35:59;;;;;;;8.23;2.70;;;;;;;;;;3365512;42;20100;-57
2022/08/20 12:38:30;;;;;;;6.95;2.38;;;;;;;;;;3365364;42;20135;-55
2022/08/20 12:41:01;;;;;;;8.50;2.60;;;;;;;;;;3357039;42;20083;-59
2022/08/20 12:43:32;;;;;;;7.43;2.67;;;;;;;;;;3371695;42;20110;-58
2022/08/20 12:46:04;;;;;;;6.60;2.60;;;;;;;;;;3370853;42;20630;-57
2022/08/20 12:48:35;;;;;;;8.38;2.63;;;;;;;;;;3370978;42;20202;-56
2022/08/20 12:51:06;;;;;;;7.05;2.60;;;;;;;;;;3363841;42;20206;-56
2022/08/20 12:53:37;;;;;;;7.40;2.38;;;;;;;;;;3365205;42;20088;-57
2022/08/20 12:56:09;;;;;;;9.95;2.30;;;;;;;;;;3358348;42;20088;-57
2022/08/20 12:58:40;;;;;;;6.90;2.43;;;;;;;;;;3370912;42;20166;-56
2022/08/20 13:01:12;;;;;;;7.38;2.47;;;;;;;;;;3371616;42;20152;-58
2022/08/20 13:03:43;;;;;;;7.07;2.38;;;;;;;;;;3359698;42;20135;-58
2022/08/20 13:06:14;;;;;;;7.32;2.50;;;;;;;;;;3361844;42;20147;-56
2022/08/20 13:08:46;;;;;;;6.30;2.53;;;;;;;;;;3362215;42;20123;-57
2022/08/20 13:11:17;;;;;;;8.50;2.40;;;;;;;;;;3364524;42;20112;-58
2022/08/20 13:13:48;;;;;;;8.77;2.28;;;;;;;;;;3369064;42;20567;-56
2022/08/20 13:16:19;;;;;;;8.90;2.60;;;;;;;;;;3369172;42;20188;-58
2022/08/20 13:18:50;;;;;;;6.40;2.25;;;;;;;;;;3353862;42;20162;-56
2022/08/20 13:21:22;;;;;;;5.72;2.22;;;;;;;;;;3362484;42;20099;-57
2022/08/20 13:23:54;;;;;;;6.80;2.10;;;;;;;;;;3367941;42;20615;-57
2022/08/20 13:26:25;;;;;;;6.20;2.00;;;;;;;;;;3364077;42;20095;-57
2022/08/20 13:28:56;;;;;;;6.90;2.40;;;;;;;;;;3364309;42;20587;-54
2022/08/20 13:31:27;;;;;;;5.72;2.10;;;;;;;;;;3364807;42;20147;-57
2022/08/20 13:33:58;;;;;;;6.35;2.33;;;;;;;;;;3363896;42;20271;-57
2022/08/20 13:36:30;;;;;;;6.47;2.27;;;;;;;;;;3364037;42;20186;-56
2022/08/20 13:39:02;;;;;;;5.57;2.20;;;;;;;;;;3364396;42;20092;-58
2022/08/20 13:41:33;;;;;;;7.15;2.40;;;;;;;;;;3364886;42;20189;-57
2022/08/20 13:44:04;;;;;;;6.35;2.47;;;;;;;;;;3364487;42;20576;-56
2022/08/20 13:46:36;;;;;;;10.40;2.40;;;;;;;;;;3364687;42;20163;-62
2022/08/20 13:49:07;;;;;;;13.70;3.07;;;;;;;;;;3364409;42;20131;-59
2022/08/20 13:51:38;;;;;;;6.95;2.30;;;;;;;;;;3364611;42;20096;-59
2022/08/20 13:54:09;;;;;;;7.45;2.30;;;;;;;;;;3358810;42;20099;-60
2022/08/20 13:56:40;;;;;;;6.40;2.33;;;;;;;;;;3365600;42;20530;-58
2022/08/20 13:59:11;;;;;;;6.20;2.50;;;;;;;;;;3358373;42;20169;-61
2022/08/20 14:01:43;;;;;;;7.53;2.63;;;;;;;;;;3360777;42;20091;-59
2022/08/20 14:04:14;;;;;;;7.05;2.58;;;;;;;;;;3360478;42;20614;-62
2022/08/20 14:06:45;;;;;;;6.63;2.30;;;;;;;;;;3362269;42;20084;-61
2022/08/20 14:09:16;;;;;;;6.20;2.45;;;;;;;;;;3356350;42;20147;-60
2022/08/20 14:11:47;;;;;;;6.85;2.40;;;;;;;;;;3368335;42;20100;-62
2022/08/20 14:14:19;;;;;;;7.57;2.50;;;;;;;;;;3364423;42;20182;-61
2022/08/20 14:16:50;;;;;;;8.05;2.75;;;;;;;;;;3360570;42;20147;-58
2022/08/20 14:19:21;;;;;;;8.18;2.60;;;;;;;;;;3364273;42;20092;-60
2022/08/20 14:21:52;;;;;;;8.55;2.72;;;;;;;;;;3360871;42;20151;-61
2022/08/20 14:24:23;;;;;;;7.55;2.80;;;;;;;;;;3362793;42;20080;-60
2022/08/20 14:26:54;;;;;;;6.37;2.40;;;;;;;;;;3361044;42;20131;-59
2022/08/20 14:29:26;;;;;;;7.07;2.35;;;;;;;;;;3366023;42;20100;-59
2022/08/20 14:31:57;;;;;;;7.78;2.60;;;;;;;;;;3363173;42;20538;-60
2022/08/20 14:34:28;;;;;;;7.80;2.50;;;;;;;;;;3364019;42;20177;-60
2022/08/20 14:37:10;;;;;;;9.57;2.97;;;;;;;;;;3356192;42;20174;-59
2022/08/20 14:39:42;;;;;;;7.50;2.60;;;;;;;;;;3372183;42;20533;-60
2022/08/20 14:42:14;;;;;;;7.93;2.83;;;;;;;;;;3366825;42;20100;-58
2022/08/20 14:44:45;;;;;;;10.00;2.70;;;;;;;;;;3356012;42;20099;-59
2022/08/20 14:47:24;;;;;;;8.63;2.72;;;;;;;;;;3359182;42;20102;-59
2022/08/20 14:50:00;;;;;;;7.10;2.60;;;;;;;;;;3359340;42;20162;-58
2022/08/20 14:52:35;;;;;;;8.27;2.70;;;;;;;;;;3357223;42;20135;-59
2022/08/20 14:55:09;;;;;;;8.48;2.65;;;;;;;;;;3371217;42;20087;-59
2022/08/20 14:57:40;;;;;;;8.73;2.45;;;;;;;;;;3371543;42;20235;-58
2022/08/20 15:00:16;;;;;;;9.38;2.63;;;;;;;;;;3372768;42;20607;-59
2022/08/20 15:02:48;;;;;;;11.50;2.60;;;;;;;;;;3372287;42;20135;-59
2022/08/20 15:05:19;;;;;;;8.40;2.40;;;;;;;;;;3371278;42;20088;-59
2022/08/20 15:07:50;;;;;;;9.95;2.45;;;;;;;;;;3371454;42;20147;-59
2022/08/20 15:10:24;;;;;;;7.95;2.90;;;;;;;;;;3356720;42;20143;-61
2022/08/20 15:12:56;;;;;;;9.75;2.80;;;;;;;;;;3366103;42;20562;-60
2022/08/20 15:15:27;;;;;;;7.35;2.60;;;;;;;;;;3373388;42;20597;-58
2022/08/20 15:17:59;;;;;;;7.50;2.87;;;;;;;;;;3360061;42;20095;-60